Big Basin, California
Current Conditions -  °F | °C
As of 6:14 AM on Monday 22 Dec 2014 (Local Time) from KNUQ Reporting Station
Haze Haze  
Wind Chill: 57°   Ceiling: 300
Heat Index: 57°   Visibility: 3mi
Dew Point: 55°   Wind: 0mph
Humidity: 94%   Direction: NA
Pressure: 30.27"   Gusts: NA
Location:  37.1694°N, 122.153°W
Report Text: KNUQ 221414Z 00000KT 3SM BR OVC003 14/13 A3027 RMK AO2
Loading
Personal Weather Stations






























Interactive Weather Map New forecast layout! Learn more

10-Day Weather Forecast

Advertisements
Track Severe Weather on mobile